Time;durP1;ratioP1;P1;durP2;ratioP2;P2;SDS_P1;SDS_P2;PMS_P1;PMS_P2;Temp;Humidity;BMP_temperature;BMP_pressure;BME280_temperature;BME280_humidity;BME280_pressure;Samples;Min_cycle;Max_cycle;Signal;HPM_P1;HPM_P2
2021/12/31 08:02:16;;;;;;;1.67;1.57;;;;;;;;;;5092216;28;20589;-78
2021/12/31 08:04:42;;;;;;;1.57;1.47;;;;;;;;;;5093388;28;20634;-78
2021/12/31 08:07:08;;;;;;;1.83;1.73;;;;;;;;;;5093622;28;20670;-78
2021/12/31 08:09:34;;;;;;;4.50;2.07;;;;;;;;;;5093579;28;20180;-78
2021/12/31 08:11:59;;;;;;;2.73;1.93;;;5.40;99.90;;;;;;5093411;28;20697;-78
2021/12/31 08:14:25;;;;;;;1.93;1.73;;;5.50;99.90;;;;;;5093945;28;20178;-78
2021/12/31 08:16:51;;;;;;;4.73;4.33;;;5.60;99.90;;;;;;5094416;28;20220;-79
2021/12/31 08:19:16;;;;;;;1.93;1.67;;;5.60;99.90;;;;;;5093476;28;20188;-80
2021/12/31 08:21:42;;;;;;;2.10;1.80;;;6.30;99.90;;;;;;5098138;28;20177;-79
2021/12/31 08:24:08;;;;;;;1.67;1.57;;;;;;;;;;5095372;28;20189;-78
2021/12/31 08:26:34;;;;;;;2.17;2.00;;;7.30;99.90;;;;;;5094735;28;20183;-79
2021/12/31 08:28:59;;;;;;;1.77;1.33;;;8.00;99.90;;;;;;5095070;28;20189;-79
2021/12/31 08:31:25;;;;;;;1.43;1.33;;;7.80;99.90;;;;;;5093994;28;20197;-79
2021/12/31 08:33:50;;;;;;;2.23;1.10;;;8.30;99.90;;;;;;5095483;28;20199;-78
2021/12/31 08:36:16;;;;;;;1.43;1.10;;;8.60;99.90;;;;;;5094339;28;20175;-79
2021/12/31 08:38:42;;;;;;;1.33;1.23;;;8.90;99.90;;;;;;5093358;28;20223;-78
2021/12/31 08:41:07;;;;;;;1.47;1.20;;;9.10;99.90;;;;;;5092899;28;20212;-78
2021/12/31 08:43:33;;;;;;;1.57;1.20;;;9.20;99.90;;;;;;5093768;28;20192;-78
2021/12/31 08:45:59;;;;;;;1.57;1.20;;;9.40;99.90;;;;;;5095153;28;20206;-78
2021/12/31 08:48:24;;;;;;;5.10;2.50;;;9.50;99.90;;;;;;5094051;28;20231;-78
2021/12/31 08:50:50;;;;;;;4.00;3.10;;;9.70;99.90;;;;;;5093136;28;20192;-79
2021/12/31 08:53:16;;;;;;;6.20;3.30;;;9.90;99.90;;;;;;5093627;28;20176;-78
2021/12/31 08:55:42;;;;;;;150.73;91.83;;;10.10;99.90;;;;;;5094740;28;20187;-78
2021/12/31 08:58:07;;;;;;;24.50;13.20;;;10.20;99.90;;;;;;5093327;28;20589;-80
2021/12/31 09:00:33;;;;;;;14.10;7.73;;;10.50;99.90;;;;;;5092573;28;20200;-78
2021/12/31 09:02:59;;;;;;;14.33;8.27;;;10.50;99.90;;;;;;5094339;28;20177;-78
2021/12/31 09:05:24;;;;;;;9.00;5.53;;;10.30;99.90;;;;;;5095821;28;20180;-79
2021/12/31 09:07:50;;;;;;;8.20;4.70;;;10.30;99.90;;;;;;5095398;28;20200;-79
2021/12/31 09:10:17;;;;;;;6.20;3.63;;;10.20;99.90;;;;;;5094507;28;20196;-79
2021/12/31 09:12:46;;;;;;;7.27;5.43;;;10.20;99.90;;;;;;5088352;28;20292;-79
2021/12/31 09:15:13;;;;;;;5.10;4.00;;;10.40;99.90;;;;;;5082757;28;20173;-79
2021/12/31 09:17:39;;;;;;;7.17;5.03;;;10.60;99.90;;;;;;5081169;28;20196;-79
2021/12/31 09:20:05;;;;;;;6.97;5.30;;;10.80;99.90;;;;;;5081397;28;20169;-79
2021/12/31 09:22:31;;;;;;;3.70;3.00;;;10.80;99.90;;;;;;5082238;28;20165;-79
2021/12/31 09:24:58;;;;;;;3.10;2.40;;;11.00;99.90;;;;;;5081134;28;20754;-78
2021/12/31 09:27:25;;;;;;;2.80;2.43;;;11.20;99.90;;;;;;5081681;28;20280;-79
2021/12/31 09:29:51;;;;;;;2.37;1.53;;;11.60;99.90;;;;;;5081139;28;20177;-79
2021/12/31 09:32:17;;;;;;;2.37;2.17;;;11.70;99.90;;;;;;5082728;28;20257;-79
2021/12/31 09:34:44;;;;;;;3.97;2.27;;;11.90;99.90;;;;;;5083039;28;20180;-79
2021/12/31 09:37:11;;;;;;;3.03;2.40;;;12.00;99.90;;;;;;5081428;28;20254;-79
2021/12/31 09:39:37;;;;;;;4.70;3.10;;;12.20;99.90;;;;;;5082772;28;20240;-79
2021/12/31 09:42:04;;;;;;;1.87;1.67;;;12.30;99.90;;;;;;5083164;28;20173;-79
2021/12/31 09:44:32;;;;;;;5.47;4.27;;;12.40;99.90;;;;;;5085070;28;20171;-79
2021/12/31 09:46:58;;;;;;;3.37;3.07;;;12.50;99.90;;;;;;5082284;28;20203;-80
2021/12/31 09:49:23;;;;;;;3.33;3.03;;;12.90;99.90;;;;;;5085948;28;20206;-79
2021/12/31 09:51:49;;;;;;;2.60;2.40;;;13.10;99.90;;;;;;5088409;28;20620;-79
2021/12/31 09:54:17;;;;;;;7.90;6.47;;;13.20;99.90;;;;;;5083543;28;20177;-80
2021/12/31 09:56:42;;;;;;;4.07;3.23;;;13.30;99.90;;;;;;5083530;28;20198;-79
2021/12/31 09:59:09;;;;;;;20.90;16.17;;;13.60;99.90;;;;;;5082570;28;20657;-79
2021/12/31 10:01:49;;;;;;;3.70;2.77;;;13.60;99.90;;;;;;5083952;28;20245;-80
2021/12/31 10:04:14;;;;;;;6.87;5.60;;;13.80;99.90;;;;;;5080788;28;20230;-79
2021/12/31 10:07:05;;;;;;;5.60;5.03;;;14.10;99.90;;;;;;5079742;28;20199;-79
2021/12/31 10:09:31;;;;;;;3.50;3.20;;;14.20;99.90;;;;;;5079914;28;20255;-79
2021/12/31 10:11:57;;;;;;;2.33;1.53;;;14.30;99.90;;;;;;5079616;28;20188;-79
2021/12/31 10:14:41;;;;;;;2.00;1.70;;;14.30;99.90;;;;;;5078848;28;20241;-79
2021/12/31 10:17:09;;;;;;;6.60;4.90;;;14.50;99.90;;;;;;5077055;28;20686;-79
2021/12/31 10:19:35;;;;;;;4.17;3.77;;;14.70;99.90;;;;;;5078361;28;20676;-79
2021/12/31 10:22:00;;;;;;;3.83;3.53;;;15.10;99.90;;;;;;5079569;28;20243;-80
2021/12/31 10:24:35;;;;;;;3.30;3.00;;;15.40;99.90;;;;;;5080373;28;20259;-79
2021/12/31 10:27:21;;;;;;;2.30;1.80;;;15.80;99.90;;;;;;5078031;28;20184;-79
2021/12/31 10:29:59;;;;;;;3.23;2.43;;;16.10;99.90;;;;;;5075883;28;20196;-79
2021/12/31 10:32:33;;;;;;;1.60;1.43;;;16.30;99.90;;;;;;5075185;28;20534;-79
2021/12/31 10:35:18;;;;;;;2.10;1.80;;;16.50;99.90;;;;;;5076736;28;20185;-79
2021/12/31 10:38:01;;;;;;;23.23;20.83;;;16.20;99.90;;;;;;5079711;28;20186;-80
2021/12/31 10:40:43;;;;;;;2.70;2.10;;;16.40;99.90;;;;;;5079465;28;20248;-80
2021/12/31 10:43:21;;;;;;;2.23;1.73;;;16.30;99.90;;;;;;5078912;28;20733;-79
2021/12/31 10:46:09;;;;;;;1.60;1.50;;;16.40;99.90;;;;;;5079987;28;20173;-80
2021/12/31 10:48:49;;;;;;;1.43;1.20;;;16.70;99.90;;;;;;5079032;28;20225;-80
2021/12/31 10:51:37;;;;;;;1.30;1.10;;;16.90;99.90;;;;;;5077934;28;20214;-80
2021/12/31 10:54:32;;;;;;;1.50;1.13;;;16.60;99.90;;;;;;5077946;28;20228;-80
2021/12/31 10:57:00;;;;;;;1.43;1.00;;;16.90;99.90;;;;;;5073333;28;20217;-80
2021/12/31 10:59:28;;;;;;;1.87;1.57;;;17.10;99.90;;;;;;5078126;28;20232;-80
2021/12/31 11:01:54;;;;;;;8.00;5.87;;;17.00;99.90;;;;;;5080750;28;20209;-81
2021/12/31 11:04:21;;;;;;;5.63;2.30;;;17.00;99.90;;;;;;5081226;28;20166;-80
2021/12/31 11:06:47;;;;;;;1.70;1.53;;;17.30;99.90;;;;;;5081031;28;20201;-81
2021/12/31 11:09:15;;;;;;;6.10;1.93;;;17.20;99.90;;;;;;5082719;28;20178;-81
2021/12/31 11:11:47;;;;;;;1.90;1.63;;;17.20;99.90;;;;;;5081411;28;20269;-81
2021/12/31 11:14:15;;;;;;;5.67;1.30;;;17.40;99.90;;;;;;5080612;28;20187;-80
2021/12/31 11:16:41;;;;;;;1.90;1.30;;;17.60;99.90;;;;;;5081726;28;20195;-80
2021/12/31 11:19:09;;;;;;;4.47;1.50;;;17.70;99.90;;;;;;5080935;28;20236;-80
2021/12/31 11:21:36;;;;;;;4.07;2.37;;;18.10;99.90;;;;;;5081275;28;20207;-81
2021/12/31 11:24:28;;;;;;;2.33;1.67;;;18.40;99.90;;;;;;5080839;28;20571;-80
2021/12/31 11:26:54;;;;;;;2.80;1.50;;;18.20;99.90;;;;;;5080854;28;20548;-81
2021/12/31 11:29:20;;;;;;;3.83;2.10;;;18.30;99.90;;;;;;5079828;28;20176;-80
2021/12/31 11:31:45;;;;;;;2.17;1.90;;;18.40;99.90;;;;;;5080712;28;20247;-81
2021/12/31 11:34:13;;;;;;;1.37;1.27;;;18.50;99.90;;;;;;5080391;28;20263;-80
2021/12/31 11:36:55;;;;;;;1.90;1.10;;;18.60;99.90;;;;;;5080744;28;20176;-80
2021/12/31 11:39:29;;;;;;;1.97;1.30;;;18.60;99.90;;;;;;5080084;28;20189;-80
2021/12/31 11:41:58;;;;;;;2.43;1.50;;;18.20;99.90;;;;;;5079268;28;20222;-80
2021/12/31 11:44:25;;;;;;;1.30;1.20;;;18.40;99.90;;;;;;5080917;28;20199;-80
2021/12/31 11:47:07;;;;;;;1.70;1.20;;;18.90;99.90;;;;;;5079551;28;20289;-81
2021/12/31 11:49:34;;;;;;;1.60;1.50;;;19.10;99.90;;;;;;5080913;28;20238;-80
2021/12/31 11:52:05;;;;;;;2.03;1.40;;;19.30;99.90;;;;;;5078596;28;20523;-81
2021/12/31 11:54:35;;;;;;;3.77;1.47;;;19.40;99.90;;;;;;5071908;28;20168;-80
2021/12/31 11:57:11;;;;;;;1.90;1.60;;;19.50;99.90;;;;;;5065189;28;20204;-80
2021/12/31 11:59:45;;;;;;;2.40;1.70;;;19.80;99.80;;;;;;5079199;28;20180;-80
2021/12/31 12:02:16;;;;;;;2.17;1.80;;;19.90;99.10;;;;;;5065135;28;20306;-80
2021/12/31 12:05:11;;;;;;;1.73;1.60;;;19.50;98.10;;;;;;5066495;28;20180;-80
2021/12/31 12:07:39;;;;;;;2.00;1.80;;;19.60;98.30;;;;;;5063266;28;20198;-81
2021/12/31 12:10:04;;;;;;;1.77;1.60;;;19.70;97.50;;;;;;5066862;28;20198;-81
2021/12/31 12:12:31;;;;;;;1.97;1.77;;;19.00;97.60;;;;;;5065617;28;20176;-81
2021/12/31 12:15:03;;;;;;;3.27;2.00;;;18.00;98.70;;;;;;5077229;28;20656;-79
2021/12/31 12:17:28;;;;;;;2.17;1.97;;;17.40;99.90;;;;;;5077525;28;20189;-79
2021/12/31 12:19:57;;;;;;;3.07;1.73;;;16.90;99.90;;;;;;5080852;28;20172;-80
2021/12/31 12:22:27;;;;;;;4.30;2.13;;;16.50;99.90;;;;;;5079706;28;20177;-80
2021/12/31 12:25:02;;;;;;;2.63;2.40;;;16.30;99.90;;;;;;5074168;28;20182;-79
2021/12/31 12:27:28;;;;;;;4.00;2.77;;;16.00;99.90;;;;;;5076622;28;20292;-79
2021/12/31 12:29:55;;;;;;;3.47;2.70;;;15.50;99.90;;;;;;5077969;28;20195;-79
2021/12/31 12:32:37;;;;;;;7.13;3.10;;;15.50;99.90;;;;;;5068715;28;20177;-79
2021/12/31 12:35:18;;;;;;;3.10;2.73;;;15.30;99.90;;;;;;5064869;28;20180;-79
2021/12/31 12:37:55;;;;;;;4.37;2.97;;;15.20;99.90;;;;;;5066849;28;20218;-79
2021/12/31 12:40:37;;;;;;;4.97;3.43;;;15.20;99.90;;;;;;5065330;28;20196;-79
2021/12/31 12:43:11;;;;;;;4.90;2.67;;;15.40;99.90;;;;;;5055450;28;20171;-79
2021/12/31 12:45:41;;;;;;;5.57;2.83;;;15.30;99.90;;;;;;5061858;28;20167;-79
2021/12/31 12:48:07;;;;;;;5.73;2.60;;;15.10;99.90;;;;;;5058802;28;20230;-79
2021/12/31 12:50:34;;;;;;;3.30;2.00;;;15.10;99.90;;;;;;5059373;28;20182;-79
2021/12/31 12:53:00;;;;;;;5.23;2.33;;;15.00;99.90;;;;;;5059425;28;20575;-79
2021/12/31 12:55:27;;;;;;;4.67;2.17;;;14.80;99.90;;;;;;5059607;28;20183;-79
2021/12/31 12:57:55;;;;;;;3.20;1.70;;;14.70;99.90;;;;;;5061903;28;20204;-79
2021/12/31 13:00:38;;;;;;;3.43;1.83;;;14.60;99.90;;;;;;5060900;28;20566;-79
2021/12/31 13:03:06;;;;;;;1.70;1.60;;;14.60;99.90;;;;;;5059805;28;20181;-79
2021/12/31 13:05:32;;;;;;;5.27;1.80;;;14.50;99.90;;;;;;5061658;28;20170;-79
2021/12/31 13:07:58;;;;;;;2.43;1.63;;;14.60;99.90;;;;;;5060493;28;20239;-79
2021/12/31 13:10:25;;;;;;;2.57;1.87;;;14.50;99.90;;;;;;5061144;28;20182;-79
2021/12/31 13:12:53;;;;;;;3.87;2.47;;;14.50;99.90;;;;;;5062033;28;20199;-78
2021/12/31 13:15:19;;;;;;;4.00;2.20;;;14.60;99.90;;;;;;5063137;28;20181;-79
2021/12/31 13:18:07;;;;;;;2.20;1.90;;;14.60;99.90;;;;;;5063754;28;20280;-79
2021/12/31 13:20:35;;;;;;;5.50;1.40;;;14.60;99.90;;;;;;5061344;28;20655;-79
2021/12/31 13:23:04;;;;;;;3.17;1.83;;;14.70;99.90;;;;;;5061283;28;20201;-79
2021/12/31 13:25:38;;;;;;;2.33;1.70;;;14.90;99.90;;;;;;5062578;28;20178;-78
2021/12/31 13:28:15;;;;;;;2.67;1.70;;;15.10;99.90;;;;;;5065629;28;20196;-79
2021/12/31 13:30:50;;;;;;;2.50;1.70;;;15.30;99.90;;;;;;5060192;28;20185;-79
2021/12/31 13:33:27;;;;;;;2.13;1.57;;;15.40;99.90;;;;;;5060190;28;20177;-79
2021/12/31 13:36:22;;;;;;;1.60;1.43;;;15.60;99.90;;;;;;5060486;28;20249;-79
2021/12/31 13:39:13;;;;;;;1.20;1.00;;;15.60;99.90;;;;;;5059029;28;20190;-79
2021/12/31 13:41:47;;;;;;;2.30;0.90;;;15.60;99.00;;;;;;5058595;28;20205;-79
2021/12/31 13:44:16;;;;;;;1.10;0.70;;;15.50;98.70;;;;;;5059631;28;20173;-79
2021/12/31 13:46:45;;;;;;;2.10;0.63;;;15.40;98.50;;;;;;5059827;28;20177;-79
2021/12/31 13:49:20;;;;;;;1.43;0.90;;;15.40;98.50;;;;;;5058484;28;20178;-79
2021/12/31 13:51:46;;;;;;;2.50;0.90;;;15.30;98.20;;;;;;5058256;28;20623;-79
2021/12/31 13:54:20;;;;;;;0.60;0.60;;;15.30;97.30;;;;;;5059195;28;20631;-78
2021/12/31 13:56:51;;;;;;;1.60;1.03;;;15.30;97.20;;;;;;5059119;28;20212;-78
2021/12/31 13:59:34;;;;;;;1.07;0.80;;;15.30;97.00;;;;;;5060075;28;20223;-79
2021/12/31 14:02:11;;;;;;;3.00;0.60;;;15.30;96.60;;;;;;5077877;28;20610;-78
2021/12/31 14:04:58;;;;;;;0.53;0.50;;;15.30;97.00;;;;;;5074909;28;20642;-78
2021/12/31 14:07:38;;;;;;;0.83;0.60;;;15.20;96.90;;;;;;5056751;28;20197;-78
2021/12/31 14:10:15;;;;;;;0.57;0.57;;;15.10;97.20;;;;;;5070603;28;20165;-79
2021/12/31 14:12:50;;;;;;;1.33;0.50;;;15.10;97.40;;;;;;5079361;28;20203;-79
2021/12/31 14:15:17;;;;;;;0.70;0.60;;;15.00;97.60;;;;;;5081372;28;20240;-79
2021/12/31 14:17:46;;;;;;;0.83;0.60;;;14.90;97.40;;;;;;5080481;28;20594;-78
2021/12/31 14:20:12;;;;;;;0.60;0.60;;;14.90;97.10;;;;;;5078086;28;20227;-79
2021/12/31 14:22:38;;;;;;;0.73;0.73;;;14.80;97.00;;;;;;5077532;28;20191;-79
2021/12/31 14:25:05;;;;;;;1.40;1.10;;;14.80;97.20;;;;;;5079147;28;20259;-79
2021/12/31 14:27:32;;;;;;;1.33;0.80;;;14.70;97.40;;;;;;5078704;28;20185;-79
2021/12/31 14:29:57;;;;;;;0.70;0.70;;;14.60;97.30;;;;;;5078938;28;20204;-79
2021/12/31 14:32:23;;;;;;;0.60;0.60;;;14.60;97.60;;;;;;5078128;28;20579;-79
2021/12/31 14:34:49;;;;;;;0.77;0.60;;;14.60;97.60;;;;;;5080629;28;20638;-79
2021/12/31 14:37:15;;;;;;;1.10;0.70;;;14.50;97.50;;;;;;5078880;28;20231;-79
2021/12/31 14:39:50;;;;;;;0.80;0.70;;;14.50;97.40;;;;;;5081192;28;20169;-79
2021/12/31 14:42:21;;;;;;;0.50;0.50;;;14.50;97.60;;;;;;5079968;28;20181;-78
2021/12/31 14:44:47;;;;;;;0.87;0.70;;;14.50;97.50;;;;;;5080676;28;20199;-79
2021/12/31 14:47:13;;;;;;;1.10;0.90;;;14.40;97.50;;;;;;5077291;28;20192;-80
2021/12/31 14:49:39;;;;;;;1.03;0.83;;;14.30;97.40;;;;;;5079358;28;20228;-81
2021/12/31 14:52:06;;;;;;;0.73;0.70;;;14.20;97.90;;;;;;5076301;28;20538;-79
2021/12/31 14:54:34;;;;;;;0.80;0.70;;;14.10;97.30;;;;;;5076150;28;20173;-80
2021/12/31 14:57:00;;;;;;;1.23;1.00;;;14.00;97.20;;;;;;5076108;28;20193;-80
2021/12/31 14:59:26;;;;;;;1.83;1.20;;;14.00;97.40;;;;;;5075802;28;20662;-81
2021/12/31 15:01:51;;;;;;;1.77;1.23;;;13.90;97.20;;;;;;5075857;28;20208;-79
2021/12/31 15:04:17;;;;;;;3.97;2.00;;;13.90;98.10;;;;;;5076545;28;20184;-79
2021/12/31 15:06:43;;;;;;;2.63;1.50;;;13.80;98.00;;;;;;5076185;28;20193;-79
2021/12/31 15:09:08;;;;;;;3.27;1.70;;;13.70;97.70;;;;;;5076952;28;20259;-79
2021/12/31 15:11:34;;;;;;;1.53;1.20;;;13.70;97.60;;;;;;5074994;28;20263;-79
2021/12/31 15:14:00;;;;;;;1.37;1.00;;;13.50;97.50;;;;;;5075437;28;20176;-79
2021/12/31 15:16:26;;;;;;;1.10;0.90;;;13.50;96.40;;;;;;5076790;28;20243;-79
2021/12/31 15:18:52;;;;;;;1.90;0.80;;;13.50;96.10;;;;;;5075010;28;20642;-80
2021/12/31 15:21:20;;;;;;;0.83;0.73;;;13.50;94.60;;;;;;5075927;28;20199;-79
2021/12/31 15:23:49;;;;;;;0.87;0.70;;;13.50;94.50;;;;;;5076734;28;20639;-80
2021/12/31 15:26:16;;;;;;;0.97;0.80;;;13.50;94.20;;;;;;5075633;28;20241;-79
2021/12/31 15:28:42;;;;;;;1.17;0.80;;;13.40;93.50;;;;;;5075749;28;20189;-79
2021/12/31 15:31:08;;;;;;;3.10;0.90;;;13.50;93.50;;;;;;5075435;28;20600;-79
2021/12/31 15:33:34;;;;;;;2.17;1.50;;;13.40;93.10;;;;;;5075803;28;20173;-79
2021/12/31 15:35:59;;;;;;;9.47;3.70;;;13.40;93.00;;;;;;5074485;28;20177;-79
2021/12/31 15:38:26;;;;;;;2.20;1.43;;;13.30;92.90;;;;;;5073647;28;20264;-79
2021/12/31 15:40:52;;;;;;;4.93;2.97;;;13.30;93.10;;;;;;5074811;28;20204;-79
2021/12/31 15:43:18;;;;;;;5.87;3.00;;;13.20;93.10;;;;;;5074764;28;20169;-79
2021/12/31 15:45:45;;;;;;;3.33;2.10;;;13.10;93.30;;;;;;5074800;28;20640;-79
2021/12/31 15:48:12;;;;;;;3.57;2.57;;;13.00;93.70;;;;;;5073284;28;20559;-78
2021/12/31 15:50:38;;;;;;;4.40;3.00;;;12.80;93.80;;;;;;5073409;28;20696;-79
2021/12/31 15:53:08;;;;;;;4.27;3.80;;;12.70;94.70;;;;;;5075461;28;20192;-79
2021/12/31 15:55:35;;;;;;;8.50;5.70;;;12.50;96.10;;;;;;5074646;28;20195;-79
2021/12/31 15:58:02;;;;;;;11.50;9.33;;;12.30;97.60;;;;;;5074503;28;20555;-79
2021/12/31 16:00:28;;;;;;;5.83;3.43;;;12.00;97.80;;;;;;5074955;28;20216;-80
2021/12/31 16:02:55;;;;;;;5.13;4.10;;;11.90;96.20;;;;;;5075911;28;20256;-80
2021/12/31 16:05:21;;;;;;;9.00;7.07;;;11.90;96.70;;;;;;5075558;28;20177;-79
2021/12/31 16:07:47;;;;;;;3.27;2.47;;;11.90;96.40;;;;;;5075936;28;20226;-78
2021/12/31 16:10:13;;;;;;;3.23;2.77;;;12.00;95.80;;;;;;5074473;28;20181;-78
2021/12/31 16:12:39;;;;;;;4.60;2.90;;;12.30;95.10;;;;;;5073971;28;20172;-78
2021/12/31 16:15:06;;;;;;;3.70;2.67;;;12.30;95.00;;;;;;5074697;28;20540;-78
2021/12/31 16:17:32;;;;;;;4.03;2.27;;;12.40;94.50;;;;;;5078805;28;20188;-78
2021/12/31 16:19:58;;;;;;;1.80;1.50;;;12.50;94.10;;;;;;5077234;28;20192;-79
2021/12/31 16:22:25;;;;;;;2.70;1.57;;;12.70;93.60;;;;;;5078648;28;20200;-79
2021/12/31 16:24:51;;;;;;;2.10;1.70;;;12.70;93.50;;;;;;5079818;28;20179;-78
2021/12/31 16:27:16;;;;;;;1.70;1.50;;;12.70;93.10;;;;;;5082437;28;20564;-79
2021/12/31 16:30:03;;;;;;;2.03;1.30;;;12.70;93.30;;;;;;5081589;28;20177;-79
2021/12/31 16:32:30;;;;;;;1.87;1.60;;;12.70;92.90;;;;;;5080577;28;20252;-79
2021/12/31 16:35:00;;;;;;;1.70;1.43;;;12.80;92.80;;;;;;5079199;28;20189;-79
2021/12/31 16:37:26;;;;;;;1.50;1.17;;;12.90;92.60;;;;;;5079519;28;20192;-78
2021/12/31 16:39:52;;;;;;;2.03;1.57;;;12.90;92.60;;;;;;5079155;28;20233;-79
2021/12/31 16:42:19;;;;;;;4.87;1.33;;;12.90;92.60;;;;;;5083660;28;20228;-80
2021/12/31 16:44:45;;;;;;;2.00;1.07;;;12.80;92.80;;;;;;5080163;28;20184;-80
2021/12/31 16:47:12;;;;;;;1.97;1.20;;;12.80;93.00;;;;;;5083127;28;20279;-81
2021/12/31 16:49:38;;;;;;;1.53;0.90;;;12.90;93.30;;;;;;5083707;28;20684;-81
2021/12/31 16:52:04;;;;;;;1.67;1.20;;;12.90;93.90;;;;;;5084428;28;20181;-81
2021/12/31 16:54:31;;;;;;;3.87;1.20;;;12.90;94.20;;;;;;5084748;28;20550;-81
2021/12/31 16:56:57;;;;;;;1.47;1.20;;;12.90;94.70;;;;;;5083314;28;20201;-81
2021/12/31 16:59:23;;;;;;;1.73;1.20;;;12.90;95.00;;;;;;5083189;28;20192;-80
2021/12/31 17:01:48;;;;;;;3.77;1.90;;;12.90;95.10;;;;;;5086553;28;20215;-80
2021/12/31 17:04:14;;;;;;;1.40;1.20;;;12.80;95.30;;;;;;5084285;28;20173;-81
2021/12/31 17:06:40;;;;;;;1.83;1.50;;;12.80;95.40;;;;;;5084377;28;20172;-79
2021/12/31 17:09:05;;;;;;;1.97;1.30;;;12.80;95.80;;;;;;5079858;28;20177;-80
2021/12/31 17:11:34;;;;;;;1.70;1.30;;;12.80;96.10;;;;;;5079380;28;20177;-81
2021/12/31 17:14:00;;;;;;;1.27;0.90;;;12.80;96.20;;;;;;5078390;28;20241;-80
2021/12/31 17:16:26;;;;;;;1.50;1.10;;;12.80;96.00;;;;;;5079750;28;20172;-78
2021/12/31 17:18:52;;;;;;;3.23;2.07;;;12.80;96.30;;;;;;5077196;28;20181;-80
2021/12/31 17:21:18;;;;;;;2.00;1.60;;;12.80;96.50;;;;;;5077716;28;20219;-80
2021/12/31 17:23:44;;;;;;;2.43;1.50;;;12.70;96.40;;;;;;5077911;28;20177;-79
2021/12/31 17:26:10;;;;;;;1.60;1.30;;;12.60;96.80;;;;;;5077900;28;20292;-81
2021/12/31 17:28:35;;;;;;;3.00;2.00;;;12.50;97.10;;;;;;5078073;28;20559;-79
2021/12/31 17:31:01;;;;;;;7.20;4.87;;;12.50;97.20;;;;;;5077635;28;20607;-81
2021/12/31 17:33:27;;;;;;;14.73;9.73;;;12.50;97.70;;;;;;5076698;28;20249;-81
2021/12/31 17:35:53;;;;;;;6.00;4.40;;;12.50;97.90;;;;;;5077031;28;20173;-80
2021/12/31 17:38:18;;;;;;;1.90;1.70;;;12.50;98.40;;;;;;5078360;28;20192;-80
2021/12/31 17:40:44;;;;;;;2.90;2.43;;;12.50;98.70;;;;;;5078105;28;20231;-80
2021/12/31 17:43:10;;;;;;;1.70;1.60;;;12.40;99.30;;;;;;5077318;28;20173;-80
2021/12/31 17:45:36;;;;;;;2.83;2.00;;;12.30;99.70;;;;;;5078508;28;20255;-79
2021/12/31 17:48:03;;;;;;;3.57;2.40;;;12.30;99.90;;;;;;5076227;28;20193;-80
2021/12/31 17:50:30;;;;;;;1.93;1.47;;;12.20;99.90;;;;;;5083416;28;20727;-80
2021/12/31 17:52:57;;;;;;;2.77;1.97;;;12.20;99.90;;;;;;5077705;28;20204;-79
2021/12/31 17:55:23;;;;;;;1.43;1.33;;;12.20;99.90;;;;;;5077698;28;20173;-80
2021/12/31 17:57:48;;;;;;;2.20;2.00;;;12.10;99.90;;;;;;5079293;28;20556;-81
2021/12/31 18:00:15;;;;;;;2.30;1.13;;;12.20;99.90;;;;;;5077725;28;20234;-80
2021/12/31 18:02:41;;;;;;;2.70;1.70;;;12.10;99.90;;;;;;5079115;28;20210;-81
2021/12/31 18:05:07;;;;;;;1.20;1.10;;;12.10;99.90;;;;;;5079177;28;20639;-81
2021/12/31 18:07:37;;;;;;;1.77;1.30;;;12.10;99.90;;;;;;5078091;28;20732;-81
2021/12/31 18:10:05;;;;;;;1.63;1.13;;;11.90;99.90;;;;;;5078090;28;20165;-80
2021/12/31 18:12:31;;;;;;;1.40;1.30;;;12.00;99.90;;;;;;5079729;28;20178;-81
2021/12/31 18:14:57;;;;;;;1.60;1.30;;;11.90;99.90;;;;;;5089944;28;20176;-81
2021/12/31 18:17:23;;;;;;;2.00;1.30;;;12.00;99.90;;;;;;5088062;28;20303;-80
2021/12/31 18:19:49;;;;;;;1.63;1.43;;;;;;;;;;5084207;28;20180;-80
2021/12/31 18:22:15;;;;;;;1.70;1.30;;;11.90;99.90;;;;;;5077340;28;20264;-80
2021/12/31 18:24:41;;;;;;;1.97;1.33;;;11.90;99.90;;;;;;5078325;28;20256;-80
2021/12/31 18:27:10;;;;;;;1.53;1.40;;;11.90;99.90;;;;;;5078822;28;20212;-80
2021/12/31 18:29:37;;;;;;;1.40;1.10;;;12.00;99.90;;;;;;5077323;28;20185;-80
2021/12/31 18:32:03;;;;;;;1.50;1.40;;;12.00;99.90;;;;;;5077737;28;20193;-79
2021/12/31 18:34:29;;;;;;;1.30;1.20;;;12.00;99.90;;;;;;5077630;28;20185;-80
2021/12/31 18:36:55;;;;;;;1.47;1.30;;;12.00;99.90;;;;;;5077686;28;20542;-80
2021/12/31 18:39:21;;;;;;;2.30;1.37;;;12.00;99.90;;;;;;5078405;28;20180;-81
2021/12/31 18:41:47;;;;;;;2.53;1.30;;;11.90;99.90;;;;;;5079032;28;20197;-81
2021/12/31 18:44:13;;;;;;;2.27;1.57;;;11.90;99.90;;;;;;5081265;28;20642;-82
2021/12/31 18:46:53;;;;;;;2.47;1.70;;;11.90;99.90;;;;;;5078875;28;20191;-81
2021/12/31 18:49:20;;;;;;;1.57;1.27;;;11.90;99.90;;;;;;5078820;28;20152;-81
2021/12/31 18:51:46;;;;;;;2.37;1.23;;;11.90;99.90;;;;;;5077453;28;20181;-82
2021/12/31 18:54:12;;;;;;;2.23;1.70;;;11.80;99.90;;;;;;5078311;28;20245;-82
2021/12/31 18:56:38;;;;;;;2.23;1.63;;;11.80;99.90;;;;;;5079934;28;20208;-81
2021/12/31 18:59:04;;;;;;;2.57;1.50;;;11.80;99.90;;;;;;5080767;28;20184;-82
2021/12/31 19:01:30;;;;;;;2.23;1.40;;;11.80;99.90;;;;;;5079564;28;20211;-83
2021/12/31 19:03:56;;;;;;;6.07;2.63;;;11.80;99.90;;;;;;5079643;28;20165;-81
2021/12/31 19:06:22;;;;;;;2.23;1.30;;;;;;;;;;5081217;28;20203;-80
2021/12/31 19:08:48;;;;;;;10.43;5.40;;;11.80;99.90;;;;;;5079708;28;20200;-82
2021/12/31 19:11:14;;;;;;;2.53;1.43;;;11.80;99.90;;;;;;5083042;28;20192;-82
2021/12/31 19:13:40;;;;;;;2.67;1.53;;;11.70;99.90;;;;;;5080683;28;20185;-82
2021/12/31 19:16:06;;;;;;;4.63;2.50;;;11.70;99.90;;;;;;5083204;28;20259;-81
2021/12/31 19:18:33;;;;;;;3.87;2.40;;;11.70;99.90;;;;;;5085482;28;20631;-82
2021/12/31 19:20:59;;;;;;;2.23;1.50;;;11.60;99.90;;;;;;5086854;28;20236;-83
2021/12/31 19:23:25;;;;;;;1.50;1.17;;;11.60;99.90;;;;;;5085521;28;20240;-82
2021/12/31 19:25:52;;;;;;;2.97;2.23;;;11.50;99.90;;;;;;5083506;28;20538;-82
2021/12/31 19:28:18;;;;;;;1.43;1.30;;;11.50;99.90;;;;;;5082035;28;20208;-82
2021/12/31 19:30:44;;;;;;;1.13;1.00;;;11.50;99.90;;;;;;5081706;28;20177;-82
2021/12/31 19:33:11;;;;;;;1.37;1.17;;;11.50;99.90;;;;;;5082094;28;20221;-82
2021/12/31 19:35:37;;;;;;;1.93;1.40;;;11.40;99.90;;;;;;5080599;28;20188;-82
2021/12/31 19:38:03;;;;;;;1.70;1.20;;;11.50;99.90;;;;;;5083283;28;20199;-82
2021/12/31 19:40:28;;;;;;;1.40;1.20;;;11.40;99.90;;;;;;5083470;28;20208;-83
2021/12/31 19:42:55;;;;;;;1.73;1.10;;;;;;;;;;5082920;28;20212;-82
2021/12/31 19:45:23;;;;;;;1.70;1.17;;;11.40;99.90;;;;;;5079796;28;20542;-82
2021/12/31 19:47:49;;;;;;;1.93;1.27;;;11.40;99.90;;;;;;5085160;28;20176;-80
2021/12/31 19:50:16;;;;;;;1.37;1.23;;;11.10;99.90;;;;;;5083070;28;20165;-81
2021/12/31 19:52:41;;;;;;;1.10;1.00;;;11.40;99.90;;;;;;5083012;28;20628;-81
2021/12/31 19:55:08;;;;;;;3.27;1.77;;;11.40;99.90;;;;;;5084592;28;20180;-81
2021/12/31 19:57:34;;;;;;;2.30;2.00;;;11.30;99.90;;;;;;5083182;28;20218;-82
2021/12/31 20:00:00;;;;;;;2.27;1.80;;;;;;;;;;5079230;28;20597;-81
2021/12/31 20:02:26;;;;;;;2.13;1.43;;;11.10;99.90;;;;;;5079464;28;20306;-82
2021/12/31 20:04:56;;;;;;;1.70;1.53;;;11.20;99.90;;;;;;5079804;28;20190;-82
2021/12/31 20:07:22;;;;;;;1.40;1.10;;;11.20;99.90;;;;;;5082061;28;20279;-82
2021/12/31 20:09:48;;;;;;;1.67;1.40;;;11.20;99.90;;;;;;5081948;28;20177;-82
2021/12/31 20:12:14;;;;;;;2.13;1.37;;;;;;;;;;5081945;28;20180;-81
2021/12/31 20:14:40;;;;;;;2.07;1.50;;;11.30;99.90;;;;;;5081617;28;20215;-81
2021/12/31 20:17:05;;;;;;;1.23;1.13;;;11.00;99.90;;;;;;5079284;28;20200;-81
2021/12/31 20:19:32;;;;;;;2.20;1.70;;;;;;;;;;5078971;28;20173;-82
2021/12/31 20:22:03;;;;;;;2.03;1.50;;;10.70;99.90;;;;;;5080646;28;20207;-81
2021/12/31 20:24:30;;;;;;;1.93;1.40;;;10.90;99.90;;;;;;5081376;28;20190;-82
2021/12/31 20:26:56;;;;;;;1.37;1.20;;;11.00;99.90;;;;;;5083643;28;20197;-83
2021/12/31 20:29:24;;;;;;;1.67;1.40;;;10.90;99.90;;;;;;5082525;28;20192;-81
2021/12/31 20:31:49;;;;;;;2.00;1.30;;;11.10;99.90;;;;;;5082650;28;20187;-82
2021/12/31 20:34:15;;;;;;;2.03;1.60;;;10.90;99.90;;;;;;5082196;28;20236;-82
2021/12/31 20:36:41;;;;;;;2.13;1.27;;;;;;;;;;5081728;28;20185;-82
2021/12/31 20:39:07;;;;;;;2.70;1.33;;;;;;;;;;5083859;28;20177;-81
2021/12/31 20:41:33;;;;;;;1.67;1.20;;;10.90;99.90;;;;;;5084112;28;20691;-83
2021/12/31 20:43:59;;;;;;;2.50;1.47;;;;;;;;;;5085184;28;20195;-82
2021/12/31 20:46:24;;;;;;;2.33;1.53;;;10.90;99.90;;;;;;5084462;28;20173;-81
2021/12/31 20:48:50;;;;;;;4.10;1.70;;;;;;;;;;5080060;28;20521;-81
2021/12/31 20:51:16;;;;;;;4.13;2.70;;;10.60;99.90;;;;;;5080643;28;20203;-80
2021/12/31 20:53:42;;;;;;;1.77;1.43;;;;;;;;;;5068149;28;20179;-80
2021/12/31 20:56:08;;;;;;;10.10;6.13;;;10.50;99.90;;;;;;5060913;28;20182;-82
2021/12/31 20:58:34;;;;;;;5.50;2.50;;;;;;;;;;5058984;28;20211;-81
2021/12/31 21:01:00;;;;;;;7.03;3.57;;;10.60;99.90;;;;;;5056765;28;20272;-80